createdAt,value
2023-03-08T00:01:13.346Z,1.83
2023-03-08T00:03:40.374Z,1.94
2023-03-08T00:06:08.490Z,1.87
2023-03-08T00:08:35.130Z,1.86
2023-03-08T00:11:08.402Z,1.74
2023-03-08T00:13:35.885Z,1.85
2023-03-08T00:16:04.479Z,1.83
2023-03-08T00:18:31.604Z,1.69
2023-03-08T00:21:02.489Z,1.77
2023-03-08T00:23:29.063Z,1.62
2023-03-08T00:25:55.902Z,1.53
2023-03-08T00:28:23.408Z,1.79
2023-03-08T00:31:00.079Z,1.75
2023-03-08T00:33:28.206Z,1.79
2023-03-08T00:36:00.736Z,1.60
2023-03-08T00:38:31.240Z,1.37
2023-03-08T00:40:58.084Z,1.40
2023-03-08T00:43:25.294Z,1.75
2023-03-08T00:45:53.268Z,1.51
2023-03-08T00:48:22.469Z,1.71
2023-03-08T00:50:51.375Z,1.86
2023-03-08T00:53:17.996Z,1.88
2023-03-08T00:55:49.834Z,1.86
2023-03-08T00:58:17.241Z,1.82
2023-03-08T01:00:44.312Z,1.73
2023-03-08T01:03:10.980Z,1.75
2023-03-08T01:05:46.189Z,1.82
2023-03-08T01:08:13.809Z,1.65
2023-03-08T01:10:40.463Z,1.89
2023-03-08T01:13:08.370Z,1.49
2023-03-08T01:15:37.374Z,1.74
2023-03-08T01:18:06.206Z,1.82
2023-03-08T01:20:33.111Z,1.76
2023-03-08T01:23:00.386Z,2.00
2023-03-08T01:25:27.516Z,1.89
2023-03-08T01:27:54.104Z,1.67
2023-03-08T01:30:20.972Z,1.76
2023-03-08T01:32:47.626Z,1.61
2023-03-08T01:35:14.437Z,1.96
2023-03-08T01:37:41.210Z,2.09
2023-03-08T01:40:09.319Z,2.03
2023-03-08T01:42:38.879Z,2.07
2023-03-08T01:45:26.536Z,1.57
2023-03-08T01:47:53.303Z,1.67
2023-03-08T01:50:25.706Z,2.01
2023-03-08T01:52:55.406Z,2.01
2023-03-08T01:55:22.345Z,1.75
2023-03-08T01:57:54.030Z,1.76
2023-03-08T02:00:23.161Z,1.75
2023-03-08T02:02:59.639Z,1.67
2023-03-08T02:05:27.671Z,1.50
2023-03-08T02:08:00.336Z,1.76
2023-03-08T02:10:32.221Z,1.63
2023-03-08T02:12:58.861Z,1.75
2023-03-08T02:15:25.488Z,1.86
2023-03-08T02:17:55.598Z,1.83
2023-03-08T02:20:32.067Z,1.83
2023-03-08T02:23:22.128Z,1.65
2023-03-08T02:25:57.096Z,1.87
2023-03-08T02:28:26.364Z,1.75
2023-03-08T02:30:54.444Z,1.57
2023-03-08T02:33:21.635Z,1.54
2023-03-08T02:35:50.185Z,1.52
2023-03-08T02:38:18.570Z,1.49
2023-03-08T02:40:45.505Z,1.56
2023-03-08T02:43:12.147Z,1.62
2023-03-08T02:45:39.887Z,1.44
2023-03-08T02:48:08.476Z,1.61
2023-03-08T02:50:36.477Z,1.64
2023-03-08T02:53:04.441Z,1.77
2023-03-08T02:55:36.018Z,1.81
2023-03-08T02:58:08.389Z,1.85
2023-03-08T03:00:35.443Z,1.73
2023-03-08T03:03:02.076Z,1.76
2023-03-08T03:05:28.796Z,1.60
2023-03-08T03:07:58.627Z,1.68
2023-03-08T03:10:27.990Z,1.56
2023-03-08T03:12:55.499Z,1.69
2023-03-08T03:15:25.669Z,1.36
2023-03-08T03:17:56.869Z,1.40
2023-03-08T03:20:23.521Z,1.49
2023-03-08T03:22:50.176Z,1.38
2023-03-08T03:25:19.173Z,1.49
2023-03-08T03:27:47.479Z,1.44
2023-03-08T03:30:18.342Z,1.48
2023-03-08T03:32:46.199Z,1.59
2023-03-08T03:35:16.782Z,1.37
2023-03-08T03:37:43.752Z,1.54
2023-03-08T03:40:14.157Z,1.48
2023-03-08T03:42:43.360Z,1.49
2023-03-08T03:45:13.257Z,1.47
2023-03-08T03:47:42.726Z,1.56
2023-03-08T03:50:10.829Z,1.68
2023-03-08T03:53:00.203Z,1.41
2023-03-08T03:55:27.777Z,1.48
2023-03-08T03:57:54.874Z,1.38
2023-03-08T04:00:22.199Z,1.25
2023-03-08T04:02:59.289Z,1.20
2023-03-08T04:05:27.387Z,1.46
2023-03-08T04:07:54.470Z,1.65
2023-03-08T04:10:24.738Z,1.68
2023-03-08T04:12:53.084Z,1.37
2023-03-08T04:15:21.463Z,1.58
2023-03-08T04:17:48.283Z,1.63
2023-03-08T04:20:15.363Z,1.57
2023-03-08T04:22:49.930Z,1.66
2023-03-08T04:25:23.085Z,1.56
2023-03-08T04:27:55.508Z,1.70
2023-03-08T04:30:22.085Z,1.76
2023-03-08T04:32:49.504Z,1.75
2023-03-08T04:35:16.359Z,1.89
2023-03-08T04:37:46.814Z,1.88
2023-03-08T04:40:16.620Z,1.76
2023-03-08T04:42:52.828Z,1.80
2023-03-08T04:45:25.204Z,1.82
2023-03-08T04:47:54.363Z,1.66
2023-03-08T04:50:21.038Z,1.76
2023-03-08T04:52:47.843Z,1.85
2023-03-08T04:55:14.579Z,1.86
2023-03-08T04:57:41.259Z,1.72
2023-03-08T05:00:11.070Z,1.64
2023-03-08T05:02:39.410Z,1.62
2023-03-08T05:05:11.945Z,1.51
2023-03-08T05:07:38.910Z,1.66
2023-03-08T05:10:05.805Z,1.69
2023-03-08T05:12:32.369Z,1.52
2023-03-08T05:15:00.592Z,1.43
2023-03-08T05:17:27.644Z,1.44
2023-03-08T05:19:55.055Z,1.65
2023-03-08T05:22:27.246Z,1.79
2023-03-08T05:24:56.715Z,1.78
2023-03-08T05:27:24.132Z,1.92
2023-03-08T05:29:52.670Z,1.53
2023-03-08T05:32:19.331Z,1.75
2023-03-08T05:34:45.926Z,1.78
2023-03-08T05:37:18.964Z,1.85
2023-03-08T05:39:48.202Z,1.80
2023-03-08T05:42:20.434Z,1.79
2023-03-08T05:44:47.412Z,1.74
2023-03-08T05:47:18.245Z,1.70
2023-03-08T05:49:44.952Z,1.70
2023-03-08T05:52:12.391Z,1.74
2023-03-08T05:54:40.075Z,1.68
2023-03-08T05:57:11.206Z,1.63
2023-03-08T05:59:38.359Z,1.57
2023-03-08T06:02:07.511Z,1.56
2023-03-08T06:04:39.097Z,1.64
2023-03-08T06:07:05.745Z,1.74
2023-03-08T06:09:36.999Z,1.85
2023-03-08T06:12:04.243Z,1.77
2023-03-08T06:14:30.986Z,1.67
2023-03-08T06:16:57.813Z,1.72
2023-03-08T06:19:27.537Z,1.72
2023-03-08T06:21:56.340Z,1.61
2023-03-08T06:24:23.374Z,1.64
2023-03-08T06:26:50.571Z,1.77
2023-03-08T06:29:17.273Z,1.74
2023-03-08T06:31:44.581Z,1.78
2023-03-08T06:34:12.923Z,1.83
2023-03-08T06:36:40.457Z,1.89
2023-03-08T06:39:07.134Z,1.91
2023-03-08T06:41:33.893Z,1.87
2023-03-08T06:44:02.346Z,1.82
2023-03-08T06:46:29.094Z,1.87
2023-03-08T06:48:55.996Z,1.82
2023-03-08T06:51:23.141Z,1.70
2023-03-08T06:53:50.293Z,1.72
2023-03-08T06:56:20.527Z,1.84
2023-03-08T06:58:47.216Z,1.75
2023-03-08T07:01:14.110Z,1.83
2023-03-08T07:03:41.758Z,1.70
2023-03-08T07:06:09.872Z,1.80
2023-03-08T07:08:38.253Z,1.85
2023-03-08T07:11:06.519Z,1.91
2023-03-08T07:13:33.143Z,1.88
2023-03-08T07:15:59.813Z,1.70
2023-03-08T07:18:26.553Z,1.93
2023-03-08T07:20:55.655Z,1.79
2023-03-08T07:23:22.485Z,1.90
2023-03-08T07:25:49.077Z,2.02
2023-03-08T07:28:15.639Z,2.13
2023-03-08T07:30:50.798Z,1.96
2023-03-08T07:33:19.641Z,1.94
2023-03-08T07:35:46.702Z,1.97
2023-03-08T07:38:13.567Z,2.01
2023-03-08T07:40:40.405Z,2.06
2023-03-08T07:43:07.498Z,2.03
2023-03-08T07:45:48.894Z,2.05
2023-03-08T07:48:15.815Z,2.11
2023-03-08T07:50:42.418Z,2.09
2023-03-08T07:53:09.150Z,2.12
2023-03-08T07:55:38.136Z,2.20
2023-03-08T07:58:04.797Z,2.13
2023-03-08T08:00:31.404Z,2.13
2023-03-08T08:02:57.952Z,2.08
2023-03-08T08:05:24.735Z,2.09
2023-03-08T08:07:51.346Z,2.24
2023-03-08T08:10:18.061Z,2.05
2023-03-08T08:12:44.738Z,2.21
2023-03-08T08:15:11.912Z,2.25
2023-03-08T08:17:38.568Z,2.32
2023-03-08T08:20:08.042Z,2.16
2023-03-08T08:22:36.354Z,2.10
2023-03-08T08:25:07.653Z,2.36
2023-03-08T08:27:35.123Z,2.34
2023-03-08T08:30:03.129Z,2.45
2023-03-08T08:32:29.789Z,2.42
2023-03-08T08:34:56.877Z,2.50
2023-03-08T08:37:24.366Z,2.43
2023-03-08T08:39:50.994Z,2.42
2023-03-08T08:42:17.529Z,2.33
2023-03-08T08:44:44.310Z,2.43
2023-03-08T08:47:10.865Z,2.44
2023-03-08T08:49:37.518Z,2.47
2023-03-08T08:52:04.400Z,2.45
2023-03-08T08:54:31.160Z,2.27
2023-03-08T08:56:57.735Z,2.15
2023-03-08T08:59:24.358Z,2.06
2023-03-08T09:01:50.966Z,2.22
2023-03-08T09:04:17.810Z,2.29
2023-03-08T09:06:44.484Z,2.29
2023-03-08T09:09:11.295Z,2.26
2023-03-08T09:11:52.162Z,2.38
2023-03-08T09:14:21.073Z,2.30
2023-03-08T09:16:47.724Z,2.25
2023-03-08T09:19:15.477Z,2.38
2023-03-08T09:21:42.149Z,2.49
2023-03-08T09:24:10.379Z,2.15
2023-03-08T09:26:37.019Z,2.13
2023-03-08T09:29:07.679Z,2.32
2023-03-08T09:31:36.902Z,2.40
2023-03-08T09:34:09.234Z,2.47
2023-03-08T09:36:41.984Z,2.28
2023-03-08T09:39:11.123Z,2.31
2023-03-08T09:41:49.459Z,2.34
2023-03-08T09:44:44.014Z,2.41
2023-03-08T09:47:22.916Z,2.52
2023-03-08T09:49:54.318Z,2.40
2023-03-08T09:52:39.270Z,2.31
2023-03-08T09:55:16.962Z,2.31
2023-03-08T09:57:52.740Z,2.44
2023-03-08T10:00:23.505Z,2.44
2023-03-08T10:03:22.427Z,2.59
2023-03-08T10:06:20.955Z,2.67
2023-03-08T10:09:02.146Z,2.62
2023-03-08T10:11:33.003Z,2.55
2023-03-08T10:14:09.211Z,2.37
2023-03-08T10:16:43.653Z,2.35
2023-03-08T10:19:10.157Z,2.36
2023-03-08T10:21:38.853Z,2.22
2023-03-08T10:24:15.830Z,2.22
2023-03-08T10:26:43.834Z,2.33
2023-03-08T10:29:14.397Z,2.53
2023-03-08T10:31:46.983Z,2.51
2023-03-08T10:34:29.895Z,2.63
2023-03-08T10:37:06.687Z,2.76
2023-03-08T10:39:35.884Z,2.52
2023-03-08T10:42:13.525Z,2.58
2023-03-08T10:44:55.057Z,2.51
2023-03-08T10:47:31.148Z,2.46
2023-03-08T10:50:06.775Z,2.42
2023-03-08T10:52:33.377Z,2.55
2023-03-08T10:55:14.723Z,2.65
2023-03-08T10:57:48.373Z,2.58
2023-03-08T11:00:19.749Z,2.63
2023-03-08T11:02:49.369Z,2.70
2023-03-08T11:05:19.276Z,2.56
2023-03-08T11:08:00.530Z,2.54
2023-03-08T11:10:29.160Z,2.48
2023-03-08T11:13:16.799Z,2.65
2023-03-08T11:15:54.356Z,2.63
2023-03-08T11:18:30.753Z,2.73
2023-03-08T11:21:06.056Z,2.76
2023-03-08T11:23:41.701Z,2.68
2023-03-08T11:26:40.397Z,2.40
2023-03-08T11:29:15.966Z,2.50
2023-03-08T11:32:10.735Z,2.49
2023-03-08T11:34:50.825Z,2.55
2023-03-08T11:37:31.528Z,2.53
2023-03-08T11:40:21.891Z,2.29
2023-03-08T11:43:21.183Z,2.59
2023-03-08T11:46:15.527Z,2.62
2023-03-08T11:48:48.236Z,2.76
2023-03-08T11:51:37.725Z,2.56
2023-03-08T11:54:25.667Z,2.49
2023-03-08T11:56:58.424Z,2.66
2023-03-08T11:59:39.828Z,2.64
2023-03-08T12:02:06.326Z,2.75
2023-03-08T12:05:03.982Z,2.68
2023-03-08T12:07:55.462Z,2.71
2023-03-08T12:10:26.043Z,2.42
2023-03-08T12:13:01.462Z,2.51
2023-03-08T12:15:30.966Z,2.77
2023-03-08T12:18:06.595Z,2.80
2023-03-08T12:20:39.636Z,2.72
2023-03-08T12:23:15.300Z,2.90
2023-03-08T12:25:45.099Z,3.12
2023-03-08T12:28:24.391Z,3.06
2023-03-08T12:31:26.580Z,2.92
2023-03-08T12:33:57.635Z,3.09
2023-03-08T12:36:37.804Z,3.00
2023-03-08T12:39:27.517Z,2.73
2023-03-08T12:42:28.727Z,3.08
2023-03-08T12:45:20.153Z,2.95
2023-03-08T12:48:00.511Z,2.94
2023-03-08T12:50:27.603Z,3.07
2023-03-08T12:52:56.062Z,3.02
2023-03-08T12:55:31.853Z,2.80
2023-03-08T12:58:01.995Z,2.84
2023-03-08T13:00:37.563Z,3.04
2023-03-08T13:03:29.013Z,2.99
2023-03-08T13:05:56.612Z,3.09
2023-03-08T13:08:35.001Z,3.12
2023-03-08T13:11:08.947Z,2.96
2023-03-08T13:13:44.677Z,3.11
2023-03-08T13:16:29.715Z,3.04
2023-03-08T13:19:27.458Z,3.13
2023-03-08T13:22:17.081Z,3.26
2023-03-08T13:24:56.488Z,3.31
2023-03-08T13:27:30.120Z,3.38
2023-03-08T13:30:18.765Z,3.12
2023-03-08T13:32:45.526Z,3.09
2023-03-08T13:35:16.695Z,3.14
2023-03-08T13:37:43.545Z,3.04
2023-03-08T13:40:19.080Z,3.07
2023-03-08T13:42:59.668Z,3.12
2023-03-08T13:45:26.785Z,3.09
2023-03-08T13:47:56.344Z,2.86
2023-03-08T13:50:33.762Z,3.05
2023-03-08T13:53:10.256Z,3.05
2023-03-08T13:55:44.513Z,3.06
2023-03-08T13:58:27.823Z,2.86
2023-03-08T14:01:12.709Z,2.92
2023-03-08T14:03:40.903Z,2.86
2023-03-08T14:06:23.873Z,2.98
2023-03-08T14:08:51.839Z,2.91
2023-03-08T14:11:25.016Z,2.80
2023-03-08T14:13:54.883Z,2.72
2023-03-08T14:16:26.770Z,2.65
2023-03-08T14:18:53.578Z,2.64
2023-03-08T14:21:23.554Z,2.74
2023-03-08T14:23:53.492Z,3.06
2023-03-08T14:26:40.586Z,2.92
2023-03-08T14:29:26.272Z,2.97
2023-03-08T14:31:52.901Z,2.83
2023-03-08T14:34:23.587Z,2.92
2023-03-08T14:37:22.268Z,3.11
2023-03-08T14:39:51.051Z,3.09
2023-03-08T14:42:30.967Z,3.35
2023-03-08T14:45:04.478Z,3.30
2023-03-08T14:47:35.684Z,3.01
2023-03-08T14:50:24.230Z,3.18
2023-03-08T14:52:53.782Z,3.22
2023-03-08T14:55:22.555Z,3.22
2023-03-08T14:57:50.498Z,3.28
2023-03-08T15:00:18.174Z,3.11
2023-03-08T15:02:44.825Z,3.06
2023-03-08T15:05:28.031Z,3.14
2023-03-08T15:07:58.160Z,3.28
2023-03-08T15:10:37.723Z,3.06
2023-03-08T15:13:05.505Z,3.04
2023-03-08T15:15:32.137Z,2.99
2023-03-08T15:17:58.681Z,3.12
2023-03-08T15:20:25.521Z,3.12
2023-03-08T15:23:05.252Z,3.23
2023-03-08T15:25:36.229Z,3.02
2023-03-08T15:28:04.401Z,3.18
2023-03-08T15:30:32.487Z,3.20
2023-03-08T15:33:00.000Z,3.39
2023-03-08T15:35:27.078Z,3.39
2023-03-08T15:37:53.834Z,3.30
2023-03-08T15:40:24.093Z,3.10
2023-03-08T15:42:50.759Z,3.16
2023-03-08T15:45:17.643Z,3.30
2023-03-08T15:47:44.432Z,3.34
2023-03-08T15:50:17.459Z,3.29
2023-03-08T15:52:45.175Z,3.11
2023-03-08T15:55:15.116Z,3.31
2023-03-08T15:57:41.970Z,3.05
2023-03-08T16:00:12.751Z,3.10
2023-03-08T16:02:40.049Z,3.27
2023-03-08T16:05:08.541Z,3.05
2023-03-08T16:07:36.153Z,2.98
2023-03-08T16:10:05.402Z,2.80
2023-03-08T16:12:31.921Z,2.87
2023-03-08T16:14:58.588Z,2.99
2023-03-08T16:17:28.540Z,3.10
2023-03-08T16:19:55.102Z,2.96
2023-03-08T16:22:22.111Z,2.93
2023-03-08T16:24:49.156Z,2.73
2023-03-08T16:27:15.866Z,2.76
2023-03-08T16:29:42.610Z,2.77
2023-03-08T16:32:14.898Z,2.66
2023-03-08T16:34:41.478Z,2.64
2023-03-08T16:37:08.173Z,2.57
2023-03-08T16:39:34.739Z,2.37
2023-03-08T16:42:01.625Z,2.25
2023-03-08T16:44:30.400Z,2.21
2023-03-08T16:46:57.020Z,2.34
2023-03-08T16:49:28.201Z,2.22
2023-03-08T16:51:55.852Z,2.42
2023-03-08T16:54:23.221Z,2.37
2023-03-08T16:56:50.532Z,2.28
2023-03-08T16:59:17.186Z,2.50
2023-03-08T17:01:44.457Z,2.48
2023-03-08T17:04:11.500Z,2.41
2023-03-08T17:06:39.171Z,2.42
2023-03-08T17:09:06.620Z,2.36
2023-03-08T17:11:35.603Z,2.29
2023-03-08T17:14:05.590Z,2.32
2023-03-08T17:16:33.234Z,2.33
2023-03-08T17:19:01.045Z,2.47
2023-03-08T17:21:29.303Z,2.41
2023-03-08T17:23:55.959Z,2.04
2023-03-08T17:26:23.186Z,2.03
2023-03-08T17:28:51.465Z,2.14
2023-03-08T17:31:21.060Z,2.14
2023-03-08T17:33:48.070Z,2.02
2023-03-08T17:36:15.669Z,2.04
2023-03-08T17:38:42.760Z,2.11
2023-03-08T17:41:12.671Z,1.94
2023-03-08T17:43:41.281Z,2.10
2023-03-08T17:46:20.108Z,2.01
2023-03-08T17:48:48.520Z,2.01
2023-03-08T17:51:17.748Z,2.19
2023-03-08T17:53:45.509Z,2.29
2023-03-08T17:56:17.579Z,2.18
2023-03-08T17:58:44.667Z,2.23
2023-03-08T18:01:19.379Z,2.17
2023-03-08T18:03:46.618Z,2.36
2023-03-08T18:06:37.916Z,2.26
2023-03-08T18:09:10.647Z,2.22
2023-03-08T18:11:37.862Z,2.19
2023-03-08T18:14:10.468Z,2.14
2023-03-08T18:16:37.472Z,1.99
2023-03-08T18:19:05.463Z,2.17
2023-03-08T18:21:34.049Z,2.25
2023-03-08T18:24:00.715Z,2.29
2023-03-08T18:26:27.839Z,2.27
2023-03-08T18:28:54.376Z,2.24
2023-03-08T18:31:25.862Z,2.18
2023-03-08T18:33:54.671Z,2.11
2023-03-08T18:36:22.415Z,2.10
2023-03-08T18:38:49.338Z,2.21
2023-03-08T18:41:23.054Z,2.22
2023-03-08T18:43:51.222Z,2.25
2023-03-08T18:46:18.019Z,2.24
2023-03-08T18:48:48.036Z,2.14
2023-03-08T18:51:16.516Z,2.02
2023-03-08T18:53:43.189Z,2.07
2023-03-08T18:56:09.764Z,2.17
2023-03-08T18:58:36.365Z,2.11
2023-03-08T19:01:10.362Z,2.19
2023-03-08T19:03:37.715Z,2.10
2023-03-08T19:06:05.215Z,2.10
2023-03-08T19:08:31.952Z,2.19
2023-03-08T19:10:59.288Z,2.02
2023-03-08T19:13:26.071Z,2.13
2023-03-08T19:15:52.679Z,2.10
2023-03-08T19:18:19.245Z,2.34
2023-03-08T19:20:45.776Z,2.24
2023-03-08T19:23:12.436Z,2.29
2023-03-08T19:25:57.276Z,2.24
2023-03-08T19:28:24.080Z,2.05
2023-03-08T19:30:50.622Z,1.96
2023-03-08T19:33:29.844Z,2.08
2023-03-08T19:35:57.409Z,2.08
2023-03-08T19:38:24.049Z,2.07
2023-03-08T19:40:50.831Z,2.10
2023-03-08T19:43:17.674Z,2.07
2023-03-08T19:45:50.817Z,2.15
2023-03-08T19:48:17.413Z,2.15
2023-03-08T19:50:45.305Z,2.21
2023-03-08T19:53:11.978Z,2.04
2023-03-08T19:55:38.547Z,2.10
2023-03-08T19:58:06.099Z,2.25
2023-03-08T20:00:32.808Z,2.19
2023-03-08T20:03:02.151Z,2.26
2023-03-08T20:05:28.770Z,2.25
2023-03-08T20:07:55.407Z,2.16
2023-03-08T20:10:22.054Z,2.14
2023-03-08T20:12:50.034Z,2.07
2023-03-08T20:15:16.823Z,2.20
2023-03-08T20:17:43.346Z,2.05
2023-03-08T20:20:11.314Z,2.22
2023-03-08T20:22:37.915Z,2.19
2023-03-08T20:25:05.136Z,2.13
2023-03-08T20:27:31.807Z,2.32
2023-03-08T20:29:58.344Z,2.22
2023-03-08T20:32:24.974Z,2.21
2023-03-08T20:34:51.592Z,2.32
2023-03-08T20:37:18.214Z,2.23
2023-03-08T20:39:44.802Z,2.12
2023-03-08T20:42:11.428Z,2.15
2023-03-08T20:44:37.976Z,2.14
2023-03-08T20:47:04.687Z,2.21
2023-03-08T20:49:31.270Z,2.10
2023-03-08T20:51:57.842Z,2.03
2023-03-08T20:54:24.395Z,2.27
2023-03-08T20:56:50.988Z,2.25
2023-03-08T20:59:20.243Z,2.15
2023-03-08T21:01:47.062Z,2.14
2023-03-08T21:04:13.656Z,2.21
2023-03-08T21:06:40.281Z,2.24
2023-03-08T21:09:06.844Z,2.24
2023-03-08T21:11:33.819Z,2.34
2023-03-08T21:14:00.485Z,2.18
2023-03-08T21:16:28.965Z,2.23
2023-03-08T21:19:00.814Z,2.17
2023-03-08T21:21:30.161Z,2.25
2023-03-08T21:23:58.770Z,2.06
2023-03-08T21:26:26.958Z,2.31
2023-03-08T21:28:56.738Z,2.35
2023-03-08T21:31:23.909Z,2.35
2023-03-08T21:33:50.797Z,2.33
2023-03-08T21:36:18.305Z,2.21
2023-03-08T21:38:45.144Z,2.25
2023-03-08T21:41:26.066Z,2.28
2023-03-08T21:43:52.875Z,2.25
2023-03-08T21:46:20.229Z,2.18
2023-03-08T21:48:47.418Z,2.28
2023-03-08T21:51:14.508Z,2.06
2023-03-08T21:53:42.069Z,2.28
2023-03-08T21:56:10.478Z,2.12
2023-03-08T21:58:37.723Z,2.08
2023-03-08T22:01:05.213Z,2.23
2023-03-08T22:03:33.344Z,2.16
2023-03-08T22:06:00.713Z,2.18
2023-03-08T22:08:27.422Z,2.34
2023-03-08T22:10:54.907Z,2.27
2023-03-08T22:13:21.757Z,2.12
2023-03-08T22:15:48.530Z,2.07
2023-03-08T22:18:15.252Z,2.01
2023-03-08T22:20:42.921Z,2.13
2023-03-08T22:23:09.592Z,2.08
2023-03-08T22:25:36.190Z,2.05
2023-03-08T22:28:02.723Z,2.16
2023-03-08T22:30:29.339Z,2.01
2023-03-08T22:32:55.985Z,1.93
2023-03-08T22:35:22.780Z,2.02
2023-03-08T22:37:50.077Z,2.05
2023-03-08T22:40:18.921Z,2.05
2023-03-08T22:42:46.362Z,2.18
2023-03-08T22:45:13.597Z,2.02
2023-03-08T22:47:40.281Z,1.92
2023-03-08T22:50:07.790Z,2.02
2023-03-08T22:52:34.397Z,1.88
2023-03-08T22:55:01.099Z,1.73
2023-03-08T22:57:27.705Z,2.02
2023-03-08T22:59:58.649Z,1.98
2023-03-08T23:02:25.695Z,2.11
2023-03-08T23:05:20.118Z,2.12
2023-03-08T23:07:46.873Z,2.05
2023-03-08T23:10:14.749Z,2.09
2023-03-08T23:12:41.430Z,2.15
2023-03-08T23:15:09.130Z,1.99
2023-03-08T23:17:35.858Z,2.17
2023-03-08T23:20:03.862Z,1.97
2023-03-08T23:22:30.479Z,1.98
2023-03-08T23:24:57.076Z,2.08
2023-03-08T23:27:23.612Z,2.11
2023-03-08T23:29:53.397Z,2.08
2023-03-08T23:32:20.246Z,2.12
2023-03-08T23:34:46.826Z,2.06
2023-03-08T23:37:13.688Z,2.16
2023-03-08T23:39:40.273Z,2.10
2023-03-08T23:42:06.897Z,2.04
2023-03-08T23:44:33.467Z,2.03
2023-03-08T23:47:00.047Z,1.93
2023-03-08T23:49:26.743Z,1.93
2023-03-08T23:51:53.274Z,1.97
2023-03-08T23:54:19.962Z,2.05
2023-03-08T23:56:46.620Z,2.06
2023-03-08T23:59:18.393Z,2.10
